createdAt,value
2022-09-28T00:01:44.691Z,0.57
2022-09-28T00:04:16.857Z,0.50
2022-09-28T00:06:49.058Z,0.70
2022-09-28T00:09:21.256Z,1.08
2022-09-28T00:11:53.896Z,0.55
2022-09-28T00:14:28.622Z,0.45
2022-09-28T00:17:00.287Z,0.45
2022-09-28T00:19:32.197Z,0.75
2022-09-28T00:22:03.830Z,0.63
2022-09-28T00:24:35.967Z,0.90
2022-09-28T00:27:07.856Z,1.48
2022-09-28T00:29:42.517Z,0.95
2022-09-28T00:32:16.616Z,0.93
2022-09-28T00:34:49.547Z,0.50
2022-09-28T00:37:22.676Z,1.52
2022-09-28T00:39:54.658Z,0.50
2022-09-28T00:42:28.047Z,0.60
2022-09-28T00:45:03.029Z,0.75
2022-09-28T00:47:50.023Z,0.50
2022-09-28T00:50:28.687Z,0.77
2022-09-28T00:53:06.657Z,0.75
2022-09-28T00:55:43.687Z,0.75
2022-09-28T00:58:22.347Z,1.55
2022-09-28T01:00:59.231Z,0.50
2022-09-28T01:03:32.117Z,0.75
2022-09-28T01:06:06.942Z,1.02
2022-09-28T01:08:40.687Z,0.60
2022-09-28T01:11:12.716Z,0.45
2022-09-28T01:13:45.138Z,0.68
2022-09-28T01:16:28.806Z,0.80
2022-09-28T01:19:08.498Z,0.93
2022-09-28T01:21:51.541Z,0.88
2022-09-28T01:24:41.097Z,1.15
2022-09-28T01:27:23.798Z,0.75
2022-09-28T01:30:04.599Z,0.70
2022-09-28T01:32:45.776Z,0.77
2022-09-28T01:35:23.086Z,0.90
2022-09-28T01:38:00.218Z,0.70
2022-09-28T01:40:35.504Z,0.50
2022-09-28T01:43:14.118Z,0.93
2022-09-28T01:45:49.598Z,0.65
2022-09-28T01:48:28.067Z,0.85
2022-09-28T01:51:03.738Z,0.60
2022-09-28T01:53:41.117Z,0.77
2022-09-28T01:56:16.317Z,0.88
2022-09-28T01:58:56.438Z,0.50
2022-09-28T02:01:34.080Z,1.50
2022-09-28T02:04:11.887Z,0.52
2022-09-28T02:06:49.117Z,0.60
2022-09-28T02:09:31.703Z,0.30
2022-09-28T02:12:13.830Z,0.82
2022-09-28T02:14:50.977Z,1.25
2022-09-28T02:17:22.910Z,0.60
2022-09-28T02:19:54.978Z,0.90
2022-09-28T02:22:31.177Z,0.88
2022-09-28T02:25:10.129Z,1.45
2022-09-28T02:27:46.817Z,1.13
2022-09-28T02:30:21.628Z,1.20
2022-09-28T02:32:57.050Z,1.02
2022-09-28T02:35:29.267Z,0.90
2022-09-28T02:38:01.137Z,0.95
2022-09-28T02:40:38.113Z,1.02
2022-09-28T02:43:19.677Z,1.35
2022-09-28T02:46:05.105Z,1.08
2022-09-28T02:49:04.992Z,0.98
2022-09-28T02:51:56.606Z,0.93
2022-09-28T02:54:53.956Z,0.80
2022-09-28T02:57:38.949Z,1.02
2022-09-28T03:00:15.199Z,1.38
2022-09-28T03:03:01.485Z,1.25
2022-09-28T03:05:41.846Z,0.90
2022-09-28T03:08:23.726Z,0.90
2022-09-28T03:11:01.156Z,0.93
2022-09-28T03:13:34.766Z,1.25
2022-09-28T03:16:15.001Z,1.10
2022-09-28T03:18:50.229Z,0.95
2022-09-28T03:21:21.818Z,1.52
2022-09-28T03:23:53.824Z,1.10
2022-09-28T03:26:40.877Z,1.92
2022-09-28T03:29:12.856Z,1.60
2022-09-28T03:31:44.625Z,1.13
2022-09-28T03:34:19.297Z,1.13
2022-09-28T03:36:50.881Z,1.35
2022-09-28T03:39:22.938Z,2.00
2022-09-28T03:41:54.548Z,0.73
2022-09-28T03:45:09.158Z,1.50
2022-09-28T03:47:40.908Z,0.95
2022-09-28T03:50:15.957Z,1.33
2022-09-28T03:52:47.576Z,1.33
2022-09-28T03:55:19.887Z,2.00
2022-09-28T03:57:57.097Z,1.25
2022-09-28T04:00:29.078Z,1.60
2022-09-28T04:03:00.428Z,1.10
2022-09-28T04:05:34.958Z,1.02
2022-09-28T04:08:06.327Z,1.00
2022-09-28T04:10:38.076Z,0.98
2022-09-28T04:13:09.497Z,1.17
2022-09-28T04:15:41.386Z,1.05
2022-09-28T04:18:13.789Z,0.85
2022-09-28T04:20:48.407Z,1.77
2022-09-28T04:23:20.517Z,1.67
2022-09-28T04:25:55.124Z,2.00
2022-09-28T04:28:38.709Z,1.73
2022-09-28T04:31:13.357Z,0.93
2022-09-28T04:33:44.668Z,1.67
2022-09-28T04:36:43.078Z,1.63
2022-09-28T04:39:15.027Z,0.98
2022-09-28T04:41:47.101Z,0.98
2022-09-28T04:44:18.695Z,1.52
2022-09-28T04:46:50.349Z,1.73
2022-09-28T04:49:22.068Z,2.00
2022-09-28T04:51:56.136Z,1.35
2022-09-28T04:54:27.798Z,2.50
2022-09-28T04:56:59.227Z,1.30
2022-09-28T04:59:30.920Z,1.92
2022-09-28T05:02:02.429Z,1.35
2022-09-28T05:04:34.188Z,1.25
2022-09-28T05:07:08.188Z,1.25
2022-09-28T05:09:39.879Z,1.40
2022-09-28T05:12:12.620Z,1.25
2022-09-28T05:14:44.408Z,1.15
2022-09-28T05:17:15.868Z,0.90
2022-09-28T05:19:47.707Z,1.95
2022-09-28T05:22:21.847Z,1.02
2022-09-28T05:24:55.168Z,1.20
2022-09-28T05:27:27.267Z,1.42
2022-09-28T05:29:59.488Z,1.48
2022-09-28T05:32:30.988Z,1.25
2022-09-28T05:35:06.117Z,1.15
2022-09-28T05:37:41.412Z,1.73
2022-09-28T05:40:15.101Z,1.50
2022-09-28T05:42:47.088Z,1.00
2022-09-28T05:45:19.067Z,1.25
2022-09-28T05:47:50.727Z,1.45
2022-09-28T05:50:22.587Z,1.60
2022-09-28T05:53:04.587Z,1.42
2022-09-28T05:55:36.508Z,1.92
2022-09-28T05:58:10.469Z,1.20
2022-09-28T06:00:42.586Z,1.70
2022-09-28T06:03:17.076Z,1.15
2022-09-28T06:05:49.229Z,1.73
2022-09-28T06:08:24.246Z,2.47
2022-09-28T06:10:56.387Z,1.20
2022-09-28T06:13:28.288Z,1.00
2022-09-28T06:16:00.348Z,1.88
2022-09-28T06:18:32.206Z,1.83
2022-09-28T06:21:06.107Z,0.85
2022-09-28T06:23:42.713Z,1.05
2022-09-28T06:26:16.728Z,1.25
2022-09-28T06:28:48.588Z,1.05
2022-09-28T06:31:23.954Z,1.08
2022-09-28T06:33:56.208Z,1.27
2022-09-28T06:36:28.268Z,1.67
2022-09-28T06:39:02.888Z,1.10
2022-09-28T06:41:35.116Z,1.63
2022-09-28T06:44:07.066Z,1.67
2022-09-28T06:46:39.524Z,1.20
2022-09-28T06:49:14.206Z,1.00
2022-09-28T06:51:50.070Z,1.90
2022-09-28T06:54:26.346Z,1.73
2022-09-28T06:56:59.344Z,1.48
2022-09-28T06:59:32.425Z,1.67
2022-09-28T07:02:05.266Z,1.55
2022-09-28T07:04:37.547Z,1.48
2022-09-28T07:07:11.506Z,1.10
2022-09-28T07:09:50.248Z,2.05
2022-09-28T07:12:26.589Z,1.60
2022-09-28T07:14:59.386Z,1.55
2022-09-28T07:17:32.477Z,1.75
2022-09-28T07:20:16.291Z,1.52
2022-09-28T07:22:50.944Z,1.50
2022-09-28T07:25:26.905Z,1.15
2022-09-28T07:28:00.386Z,2.03
2022-09-28T07:30:34.508Z,1.63
2022-09-28T07:33:08.825Z,2.10
2022-09-28T07:35:42.303Z,1.70
2022-09-28T07:38:14.826Z,1.83
2022-09-28T07:41:02.236Z,2.47
2022-09-28T07:43:35.646Z,2.67
2022-09-28T07:46:12.672Z,1.75
2022-09-28T07:48:46.278Z,2.08
2022-09-28T07:51:20.131Z,2.13
2022-09-28T07:53:54.457Z,1.17
2022-09-28T07:56:29.839Z,2.08
2022-09-28T07:59:02.472Z,3.50
2022-09-28T08:01:34.827Z,2.15
2022-09-28T08:04:07.473Z,2.53
2022-09-28T08:06:40.832Z,1.48
2022-09-28T08:09:26.352Z,1.55
2022-09-28T08:12:19.991Z,2.13
2022-09-28T08:14:52.993Z,2.00
2022-09-28T08:17:25.397Z,2.05
2022-09-28T08:20:10.207Z,1.63
2022-09-28T08:22:42.924Z,1.40
2022-09-28T08:25:15.512Z,1.38
2022-09-28T08:27:50.592Z,1.63
2022-09-28T08:30:23.517Z,1.05
2022-09-28T08:32:55.954Z,1.33
2022-09-28T08:35:28.596Z,1.10
2022-09-28T08:38:03.797Z,1.50
2022-09-28T08:40:41.327Z,1.90
2022-09-28T08:43:28.550Z,1.20
2022-09-28T08:46:03.597Z,1.00
2022-09-28T08:49:13.554Z,1.23
2022-09-28T08:51:52.511Z,1.00
2022-09-28T08:54:40.643Z,1.45
2022-09-28T08:57:18.113Z,2.25
2022-09-28T08:59:56.073Z,1.40
2022-09-28T09:02:33.923Z,1.38
2022-09-28T09:05:09.216Z,0.98
2022-09-28T09:08:03.723Z,0.68
2022-09-28T09:10:50.995Z,1.50
2022-09-28T09:14:03.429Z,1.52
2022-09-28T09:17:00.255Z,1.00
2022-09-28T09:19:42.561Z,1.25
2022-09-28T09:22:20.722Z,0.77
2022-09-28T09:24:55.363Z,0.85
2022-09-28T09:27:48.609Z,1.05
2022-09-28T09:30:26.657Z,0.98
2022-09-28T09:33:35.147Z,1.00
2022-09-28T09:36:22.231Z,0.40
2022-09-28T09:39:06.992Z,1.27
2022-09-28T09:41:53.993Z,0.45
2022-09-28T09:44:50.839Z,0.93
2022-09-28T09:47:26.871Z,0.52
2022-09-28T09:50:10.678Z,0.32
2022-09-28T09:52:52.750Z,0.45
2022-09-28T09:55:32.956Z,0.40
2022-09-28T09:58:12.711Z,0.20
2022-09-28T10:00:48.232Z,0.50
2022-09-28T10:03:27.984Z,0.30
2022-09-28T10:06:06.761Z,0.65
2022-09-28T10:08:44.016Z,0.55
2022-09-28T10:11:20.376Z,0.50
2022-09-28T10:13:52.695Z,0.50
2022-09-28T10:16:24.800Z,0.30
2022-09-28T10:18:57.054Z,0.55
2022-09-28T10:21:37.814Z,0.50
2022-09-28T10:24:18.574Z,0.68
2022-09-28T10:26:54.335Z,0.98
2022-09-28T10:29:29.253Z,0.73
2022-09-28T10:32:01.415Z,0.60
2022-09-28T10:34:34.057Z,0.40
2022-09-28T10:37:13.097Z,0.68
2022-09-28T10:39:50.897Z,0.30
2022-09-28T10:42:26.099Z,0.57
2022-09-28T10:45:02.459Z,0.50
2022-09-28T10:47:35.935Z,0.50
2022-09-28T10:50:23.383Z,0.30
2022-09-28T10:53:13.816Z,0.30
2022-09-28T10:55:59.578Z,0.40
2022-09-28T10:58:40.854Z,0.30
2022-09-28T11:01:15.525Z,0.65
2022-09-28T11:03:55.941Z,0.20
2022-09-28T11:06:30.737Z,0.73
2022-09-28T11:09:07.939Z,0.73
2022-09-28T11:11:45.339Z,0.30
2022-09-28T11:14:29.824Z,0.50
2022-09-28T11:17:21.258Z,0.50
2022-09-28T11:19:54.142Z,0.50
2022-09-28T11:22:29.337Z,0.30
2022-09-28T11:25:25.347Z,0.85
2022-09-28T11:28:04.874Z,0.40
2022-09-28T11:30:41.600Z,0.38
2022-09-28T11:33:20.439Z,0.40
2022-09-28T11:36:00.972Z,0.82
2022-09-28T11:38:43.399Z,0.50
2022-09-28T11:41:37.398Z,0.40
2022-09-28T11:44:39.965Z,0.43
2022-09-28T11:47:24.454Z,0.73
2022-09-28T11:50:04.953Z,0.60
2022-09-28T11:52:44.653Z,0.40
2022-09-28T11:55:26.336Z,0.35
2022-09-28T11:58:09.736Z,0.50
2022-09-28T12:00:48.977Z,0.60
2022-09-28T12:03:26.752Z,0.75
2022-09-28T12:06:03.454Z,0.52
2022-09-28T12:08:39.898Z,0.52
2022-09-28T12:11:18.936Z,0.43
2022-09-28T12:13:56.530Z,0.40
2022-09-28T12:17:00.964Z,0.68
2022-09-28T12:19:31.148Z,0.38
2022-09-28T12:22:08.878Z,0.30
2022-09-28T12:24:45.680Z,0.30
2022-09-28T12:27:26.514Z,0.50
2022-09-28T12:30:06.754Z,0.95
2022-09-28T12:32:45.966Z,0.30
2022-09-28T12:35:22.628Z,0.43
2022-09-28T12:38:09.186Z,0.30
2022-09-28T12:40:48.725Z,0.47
2022-09-28T12:44:02.476Z,0.30
2022-09-28T12:46:54.161Z,0.30
2022-09-28T12:53:02.955Z,0.30
2022-09-28T12:55:51.505Z,0.73
2022-09-28T12:58:48.623Z,0.40
2022-09-28T13:01:39.084Z,0.30
2022-09-28T13:04:49.599Z,0.55
2022-09-28T13:07:29.904Z,0.38
2022-09-28T13:10:14.388Z,0.30
2022-09-28T13:13:00.387Z,0.40
2022-09-28T13:15:44.277Z,0.43
2022-09-28T13:18:23.662Z,0.30
2022-09-28T13:21:08.921Z,0.30
2022-09-28T13:23:46.121Z,0.30
2022-09-28T13:26:28.434Z,0.32
2022-09-28T13:29:05.957Z,0.20
2022-09-28T13:31:41.714Z,0.35
2022-09-28T13:34:20.834Z,0.30
2022-09-28T13:37:24.471Z,0.32
2022-09-28T13:39:57.911Z,0.22
2022-09-28T13:42:54.033Z,0.30
2022-09-28T13:45:49.707Z,0.55
2022-09-28T13:48:25.230Z,0.30
2022-09-28T13:51:23.072Z,0.30
2022-09-28T13:54:19.894Z,0.30
2022-09-28T13:57:01.833Z,1.02
2022-09-28T13:59:43.614Z,0.40
2022-09-28T14:02:29.635Z,0.63
2022-09-28T14:05:07.251Z,0.43
2022-09-28T14:08:01.764Z,0.38
2022-09-28T14:10:55.017Z,0.60
2022-09-28T14:13:57.113Z,0.30
2022-09-28T14:16:31.410Z,0.20
2022-09-28T14:19:10.282Z,0.30
2022-09-28T14:22:12.823Z,0.30
2022-09-28T14:25:09.146Z,0.20
2022-09-28T14:28:02.203Z,0.30
2022-09-28T14:30:50.833Z,0.30
2022-09-28T14:33:30.822Z,0.50
2022-09-28T14:36:06.118Z,0.50
2022-09-28T14:38:53.492Z,0.20
2022-09-28T14:41:35.425Z,0.20
2022-09-28T14:44:12.586Z,0.50
2022-09-28T14:46:46.815Z,0.30
2022-09-28T14:49:54.442Z,0.30
2022-09-28T14:52:43.106Z,0.35
2022-09-28T14:55:24.033Z,0.45
2022-09-28T14:58:00.078Z,0.32
2022-09-28T15:00:35.518Z,0.57
2022-09-28T15:03:12.267Z,0.65
2022-09-28T15:05:47.611Z,0.20
2022-09-28T15:08:23.047Z,0.45
2022-09-28T15:10:55.669Z,0.30
2022-09-28T15:13:30.720Z,0.20
2022-09-28T15:16:11.811Z,0.40
2022-09-28T15:19:18.732Z,0.30
2022-09-28T15:21:51.441Z,0.40
2022-09-28T15:24:34.710Z,0.57
2022-09-28T15:27:19.306Z,0.68
2022-09-28T15:30:01.675Z,0.68
2022-09-28T15:32:37.272Z,0.73
2022-09-28T15:35:17.420Z,0.35
2022-09-28T15:37:50.609Z,0.25
2022-09-28T15:40:28.612Z,0.40
2022-09-28T15:43:01.018Z,0.30
2022-09-28T15:45:36.999Z,0.60
2022-09-28T15:48:32.360Z,0.45
2022-09-28T15:51:11.245Z,0.52
2022-09-28T15:53:47.261Z,0.30
2022-09-28T15:56:19.504Z,0.38
2022-09-28T15:59:13.601Z,0.55
2022-09-28T16:01:47.492Z,0.68
2022-09-28T16:04:52.360Z,0.40
2022-09-28T16:07:27.896Z,0.70
2022-09-28T16:10:03.631Z,0.60
2022-09-28T16:12:48.439Z,0.43
2022-09-28T16:15:24.349Z,0.93
2022-09-28T16:18:00.840Z,0.63
2022-09-28T16:20:38.133Z,0.50
2022-09-28T16:23:21.033Z,0.50
2022-09-28T16:25:55.854Z,0.68
2022-09-28T16:28:34.177Z,0.63
2022-09-28T16:31:08.775Z,0.77
2022-09-28T16:33:46.875Z,0.50
2022-09-28T16:36:21.422Z,0.68
2022-09-28T16:38:54.548Z,0.55
2022-09-28T16:41:29.672Z,0.85
2022-09-28T16:44:04.248Z,0.60
2022-09-28T16:46:39.851Z,0.68
2022-09-28T16:49:18.912Z,1.52
2022-09-28T16:51:53.443Z,0.82
2022-09-28T16:54:39.504Z,0.70
2022-09-28T16:57:14.437Z,1.00
2022-09-28T16:59:46.296Z,1.05
2022-09-28T17:02:45.068Z,1.15
2022-09-28T17:05:14.154Z,0.65
2022-09-28T17:07:50.290Z,0.60
2022-09-28T17:10:27.347Z,1.58
2022-09-28T17:12:59.468Z,0.75
2022-09-28T17:15:32.106Z,0.68
2022-09-28T17:18:04.387Z,1.00
2022-09-28T17:20:39.168Z,0.80
2022-09-28T17:23:13.627Z,1.05
2022-09-28T17:25:46.389Z,1.00
2022-09-28T17:28:23.187Z,0.70
2022-09-28T17:30:56.180Z,1.10
2022-09-28T17:33:28.558Z,1.60
2022-09-28T17:36:05.298Z,0.85
2022-09-28T17:38:42.596Z,1.67
2022-09-28T17:41:20.223Z,0.88
2022-09-28T17:43:53.179Z,0.70
2022-09-28T17:46:32.274Z,0.68
2022-09-28T17:49:05.859Z,1.00
2022-09-28T17:51:41.764Z,1.05
2022-09-28T17:54:20.779Z,1.13
2022-09-28T17:56:53.534Z,0.77
2022-09-28T17:59:27.093Z,1.00
2022-09-28T18:02:02.378Z,0.77
2022-09-28T18:04:51.296Z,1.27
2022-09-28T18:07:25.213Z,1.33
2022-09-28T18:10:08.411Z,0.68
2022-09-28T18:12:41.013Z,1.30
2022-09-28T18:15:14.092Z,1.17
2022-09-28T18:17:46.772Z,0.77
2022-09-28T18:20:18.810Z,1.40
2022-09-28T18:22:52.935Z,0.82
2022-09-28T18:25:28.133Z,1.73
2022-09-28T18:28:01.646Z,1.38
2022-09-28T18:30:34.270Z,1.15
2022-09-28T18:33:06.877Z,1.38
2022-09-28T18:35:39.558Z,1.10
2022-09-28T18:38:12.115Z,1.50
2022-09-28T18:40:48.605Z,1.40
2022-09-28T18:43:21.055Z,0.95
2022-09-28T18:45:54.478Z,0.88
2022-09-28T18:48:28.215Z,1.73
2022-09-28T18:51:00.136Z,1.20
2022-09-28T18:53:35.083Z,1.20
2022-09-28T18:56:13.333Z,1.30
2022-09-28T18:58:46.654Z,1.20
2022-09-28T19:01:36.553Z,1.13
2022-09-28T19:04:11.193Z,1.48
2022-09-28T19:06:44.877Z,1.20
2022-09-28T19:09:17.431Z,0.85
2022-09-28T19:11:53.112Z,1.00
2022-09-28T19:14:25.396Z,1.55
2022-09-28T19:16:57.398Z,1.33
2022-09-28T19:19:30.037Z,0.55
2022-09-28T19:22:02.171Z,1.25
2022-09-28T19:24:34.559Z,0.80
2022-09-28T19:27:09.237Z,0.63
2022-09-28T19:29:54.097Z,2.08
2022-09-28T19:32:26.036Z,0.95
2022-09-28T19:34:58.219Z,1.50
2022-09-28T19:37:30.377Z,1.60
2022-09-28T19:40:02.484Z,1.05
2022-09-28T19:42:37.878Z,1.15
2022-09-28T19:45:11.137Z,1.20
2022-09-28T19:47:42.937Z,1.33
2022-09-28T19:50:14.882Z,0.60
2022-09-28T19:52:46.998Z,1.35
2022-09-28T19:55:21.660Z,2.28
2022-09-28T19:57:56.657Z,2.05
2022-09-28T20:00:28.685Z,1.48
2022-09-28T20:03:01.874Z,0.85
2022-09-28T20:05:34.377Z,1.45
2022-09-28T20:08:06.216Z,1.40
2022-09-28T20:10:38.555Z,1.27
2022-09-28T20:13:13.674Z,1.23
2022-09-28T20:15:45.764Z,0.90
2022-09-28T20:18:18.763Z,0.82
2022-09-28T20:20:50.945Z,0.77
2022-09-28T20:23:22.614Z,1.38
2022-09-28T20:25:56.436Z,1.63
2022-09-28T20:28:31.127Z,1.42
2022-09-28T20:31:06.036Z,1.17
2022-09-28T20:33:39.775Z,0.75
2022-09-28T20:36:14.577Z,0.75
2022-09-28T20:38:49.875Z,1.02
2022-09-28T20:41:24.677Z,0.70
2022-09-28T20:44:04.261Z,0.75
2022-09-28T20:46:39.125Z,1.48
2022-09-28T20:49:11.196Z,2.10
2022-09-28T20:51:43.156Z,1.08
2022-09-28T20:54:38.179Z,1.00
2022-09-28T20:57:17.798Z,1.02
2022-09-28T20:59:54.890Z,1.95
2022-09-28T21:02:28.241Z,0.88
2022-09-28T21:05:01.087Z,1.08
2022-09-28T21:07:33.426Z,1.15
2022-09-28T21:10:31.192Z,1.80
2022-09-28T21:13:03.511Z,0.90
2022-09-28T21:15:39.047Z,1.75
2022-09-28T21:18:11.467Z,1.48
2022-09-28T21:20:49.387Z,1.77
2022-09-28T21:23:25.109Z,1.33
2022-09-28T21:26:05.532Z,1.40
2022-09-28T21:28:39.402Z,1.17
2022-09-28T21:31:15.509Z,1.70
2022-09-28T21:33:48.042Z,0.77
2022-09-28T21:36:20.760Z,1.30
2022-09-28T21:38:53.859Z,1.08
2022-09-28T21:41:26.419Z,1.80
2022-09-28T21:43:58.828Z,1.70
2022-09-28T21:46:34.588Z,1.20
2022-09-28T21:49:11.919Z,1.05
2022-09-28T21:51:47.502Z,0.98
2022-09-28T21:54:19.943Z,0.82
2022-09-28T21:56:52.898Z,0.90
2022-09-28T21:59:25.421Z,1.38
2022-09-28T22:02:00.270Z,0.68
2022-09-28T22:04:32.930Z,1.23
2022-09-28T22:07:05.226Z,0.95
2022-09-28T22:09:37.585Z,0.90
2022-09-28T22:12:09.807Z,0.65
2022-09-28T22:14:42.086Z,1.10
2022-09-28T22:17:17.147Z,1.90
2022-09-28T22:19:49.426Z,0.98
2022-09-28T22:22:21.586Z,1.33
2022-09-28T22:24:55.348Z,1.05
2022-09-28T22:27:27.425Z,1.20
2022-09-28T22:29:59.588Z,0.63
2022-09-28T22:32:34.228Z,1.08
2022-09-28T22:35:06.688Z,1.02
2022-09-28T22:37:38.346Z,1.05
2022-09-28T22:40:13.045Z,0.82
2022-09-28T22:42:44.986Z,0.82
2022-09-28T22:45:17.307Z,0.88
2022-09-28T22:47:51.947Z,0.60
2022-09-28T22:50:24.208Z,1.00
2022-09-28T22:52:56.625Z,1.00
2022-09-28T22:55:28.426Z,0.88
2022-09-28T22:58:00.325Z,0.70
2022-09-28T23:00:32.427Z,2.13
2022-09-28T23:03:07.592Z,1.38
2022-09-28T23:05:39.887Z,1.10
2022-09-28T23:08:11.510Z,1.20
2022-09-28T23:10:45.026Z,1.58
2022-09-28T23:13:16.965Z,1.35
2022-09-28T23:15:59.014Z,0.73
2022-09-28T23:18:36.411Z,1.02
2022-09-28T23:21:10.527Z,0.95
2022-09-28T23:23:42.407Z,1.10
2022-09-28T23:26:15.867Z,1.35
2022-09-28T23:28:48.706Z,0.85
2022-09-28T23:31:23.323Z,1.25
2022-09-28T23:34:00.627Z,1.13
2022-09-28T23:36:33.117Z,1.02
2022-09-28T23:39:05.067Z,2.33
2022-09-28T23:41:37.333Z,1.92
2022-09-28T23:44:09.026Z,1.30
2022-09-28T23:46:41.497Z,1.73
2022-09-28T23:49:16.126Z,1.88
2022-09-28T23:51:48.326Z,1.65
2022-09-28T23:54:20.286Z,0.95
2022-09-28T23:56:52.427Z,1.05
2022-09-28T23:59:24.165Z,1.52
